Date,TemperatureHighF,TemperatureAvgF,TemperatureLowF,DewpointHighF,DewpointAvgF,DewpointLowF,HumidityHigh,HumidityAvg,HumidityLow,PressureMaxIn,PressureMinIn,WindSpeedMaxMPH,WindSpeedAvgMPH,GustSpeedMaxMPH,PrecipitationSumIn
2013-1-1,74,63,53,67,61,52,98,93,78,30.07,29.90,6,1,7,0.23
2013-1-2,53,48,42,52,45,42,97,92,86,30.21,30.00,7,3,13,0.12
2013-1-3,47,41,31,42,35,27,100,82,50,30.38,30.19,8,2,15,0.30
2013-1-4,49,41,32,41,34,28,91,76,61,30.39,30.34,2,0,3,0.00
2013-1-5,51,46,42,40,36,32,75,67,58,30.37,30.23,4,1,9,0.00
2013-1-6,50,46,40,47,43,39,97,92,71,30.30,30.19,6,2,9,0.30
2013-1-7,60,48,38,45,40,36,97,77,46,30.33,30.18,3,1,6,0.01
2013-1-8,62,55,42,60,51,39,94,87,76,30.23,30.11,2,0,6,0.00
2013-1-9,70,65,60,67,64,59,99,95,90,30.21,30.11,3,1,9,0.09
2013-1-10,71,67,62,68,66,61,99,96,91,30.20,29.94,3,1,10,0.47
2013-1-11,76,68,62,71,66,61,99,95,84,30.11,30.02,2,0,4,0.00
2013-1-12,76,70,68,71,68,67,99,95,85,30.08,29.93,2,0,8,0.01
2013-1-13,73,68,53,70,66,52,98,95,91,30.04,29.90,6,2,10,0.54
2013-1-14,53,47,41,52,47,40,100,98,96,30.13,30.03,8,3,11,0.21
2013-1-15,54,48,43,54,48,43,99,99,98,30.07,29.95,3,0,4,0.39
2013-1-16,48,42,38,48,42,36,99,97,91,30.10,29.96,4,0,8,0.38
2013-1-17,51,42,35,39,36,33,97,82,58,30.38,30.09,6,0,12,0.00
2013-1-18,57,45,35,42,37,33,96,77,48,30.52,30.38,8,2,14,0.00
2013-1-19,64,47,31,49,40,30,97,80,53,30.39,30.23,3,0,4,0.01
2013-1-20,67,54,35,52,46,34,99,78,50,30.27,30.12,3,0,5,0.00
2013-1-21,65,50,36,48,43,36,98,78,45,30.21,30.13,8,1,11,0.01
2013-1-22,60,47,37,43,36,29,95,69,44,30.37,30.21,5,1,9,0.00
2013-1-23,70,51,34,51,44,33,98,79,49,30.40,30.29,2,0,3,0.00
2013-1-24,73,55,37,59,50,36,98,84,58,30.34,30.21,2,0,3,0.00
2013-1-25,72,58,43,60,54,42,99,87,64,30.26,30.13,5,1,7,0.00
2013-1-26,71,58,47,64,56,46,99,92,71,30.26,30.17,4,0,4,0.01
2013-1-27,72,59,50,62,56,49,99,90,62,30.30,30.21,2,0,5,0.01
2013-1-28,74,65,58,66,62,57,99,90,72,30.26,30.12,3,1,5,0.01
2013-1-29,73,69,66,70,68,66,99,96,88,30.12,29.82,4,1,11,0.10
2013-1-30,72,59,39,70,55,34,98,87,60,30.15,29.67,6,1,11,1.04
2013-1-31,59,45,31,39,33,26,97,68,30,30.33,30.15,5,0,9,0.00
2013-2-1,60,46,35,41,37,33,96,74,43,30.41,30.30,8,1,11,0.00
2013-2-2,65,48,30,52,41,29,97,79,47,30.35,30.18,2,0,4,0.00
2013-2-3,67,52,38,50,40,31,97,70,26,30.27,30.13,5,1,7,0.00
2013-2-4,62,50,36,54,43,35,97,81,54,30.13,29.96,2,0,4,0.19
2013-2-5,68,60,53,61,57,52,98,92,78,30.03,29.93,3,0,4,0.61
2013-2-6,71,59,53,62,57,52,99,93,68,30.14,30.00,3,0,7,0.03
2013-2-7,74,62,50,64,58,49,98,88,66,30.01,29.82,12,1,16,1.65
2013-2-8,75,59,48,62,54,48,99,86,58,30.17,29.95,6,1,11,0.01
2013-2-9,67,59,44,57,53,41,94,83,68,30.24,30.08,4,1,6,0.00
2013-2-10,70,66,57,69,64,55,96,92,87,30.08,29.93,4,2,9,0.06
2013-2-11,69,61,56,68,59,55,98,95,82,30.12,29.97,12,2,14,0.71
2013-2-12,68,59,54,68,59,54,100,99,97,30.06,29.74,4,1,7,0.16
2013-2-13,65,50,38,65,48,38,99,96,87,30.07,29.79,2,0,7,0.18
2013-2-14,60,45,35,45,40,34,99,84,47,30.17,30.05,6,0,8,0.01
2013-2-15,64,49,34,45,39,33,98,73,35,30.18,30.05,5,1,7,0.01
2013-2-16,53,45,30,41,28,18,90,56,27,30.30,30.12,9,1,19,0.00
2013-2-17,57,42,26,37,30,23,95,68,32,30.38,30.25,2,0,4,0.00
2013-2-18,64,52,32,59,46,31,98,82,58,30.25,29.99,7,2,15,0.11
2013-2-19,64,57,45,60,44,27,100,66,26,30.22,29.95,9,2,13,0.81
2013-2-20,59,47,39,37,30,23,83,54,27,30.27,30.05,4,1,9,0.00
2013-2-21,68,57,42,66,50,32,95,78,60,30.06,29.82,5,1,15,0.00
2013-2-22,68,62,56,68,58,51,99,87,59,29.98,29.85,4,1,10,0.99
2013-2-23,60,56,53,57,54,50,98,92,85,29.95,29.82,8,2,13,1.34
2013-2-24,71,58,45,58,52,44,100,83,59,29.98,29.78,4,1,9,0.36
2013-2-25,68,62,58,67,61,57,99,95,87,29.80,29.47,8,2,12,2.59
2013-2-26,61,53,45,58,43,38,92,70,48,29.92,29.51,3,0,6,0.00
2013-2-27,68,52,43,49,45,41,97,78,38,30.03,29.92,2,0,6,0.00
2013-2-28,57,47,37,44,37,31,95,72,40,30.11,30.00,4,0,7,0.00
2013-3-1,62,46,36,39,34,30,96,67,34,30.17,30.01,4,1,10,0.00
2013-3-2,49,38,29,34,28,24,95,70,49,30.25,30.13,7,2,14,0.00
2013-3-3,54,39,25,35,26,20,94,64,28,30.27,30.14,6,1,16,0.00
2013-3-4,65,52,31,55,45,30,97,79,56,30.14,29.96,4,1,10,0.00
2013-3-5,75,63,45,63,54,41,87,73,44,30.17,29.93,4,1,8,0.00
2013-3-6,61,48,34,41,32,27,92,57,31,30.30,30.16,7,1,14,0.00
2013-3-7,65,48,38,43,36,31,94,66,35,30.35,30.22,5,1,9,0.00
2013-3-8,72,52,34,46,39,32,97,68,24,30.31,30.18,4,0,9,0.00
2013-3-9,71,58,43,59,51,41,94,78,47,30.20,29.99,5,1,13,0.00
2013-3-10,75,68,62,65,62,59,95,83,65,30.00,29.88,4,2,13,0.06
2013-3-11,66,54,45,66,51,41,98,91,68,30.01,29.80,4,1,12,0.34
2013-3-12,64,50,37,43,39,35,96,71,37,30.20,30.01,8,1,13,0.00
2013-3-13,64,51,36,42,32,22,95,54,20,30.38,30.20,11,2,14,0.00
2013-3-14,66,50,33,40,31,22,90,54,23,30.44,30.28,7,2,14,0.00
2013-3-15,75,55,36,51,43,35,96,69,34,30.31,30.12,4,1,5,0.00
2013-3-16,76,61,45,58,53,44,97,77,47,30.13,29.96,4,1,7,0.00
2013-3-17,73,62,49,65,58,48,100,87,63,30.00,29.85,3,0,6,0.01
2013-3-18,81,71,63,69,66,60,96,85,63,29.90,29.74,5,1,6,0.01
2013-3-19,76,64,53,65,52,44,96,68,40,30.03,29.85,9,2,14,0.02
2013-3-20,65,56,42,47,38,30,82,54,30,30.13,29.98,11,2,16,0.01
2013-3-21,66,50,37,45,36,29,91,63,26,30.08,29.89,7,1,14,0.00
2013-3-22,71,60,47,60,53,43,88,79,65,29.91,29.81,4,1,10,0.00
2013-3-23,76,67,60,71,64,58,98,91,81,29.86,29.57,2,0,5,0.06
2013-3-24,74,63,45,70,54,33,99,75,34,29.97,29.57,5,1,9,0.01
2013-3-25,58,46,33,35,29,20,88,56,23,30.24,29.97,7,1,13,0.00
2013-3-26,56,42,29,32,28,23,91,60,32,30.38,30.24,6,1,17,0.00
2013-3-27,62,45,29,39,32,26,95,65,26,30.44,30.28,4,0,4,0.00
2013-3-28,71,50,32,45,37,30,97,68,26,30.36,30.23,3,0,9,0.00
2013-3-29,72,55,38,55,46,36,98,76,32,30.33,30.20,2,0,4,0.00
2013-3-30,75,60,44,59,53,43,98,79,41,30.20,30.01,4,1,6,0.00
2013-3-31,78,62,51,66,59,50,99,90,65,30.07,29.84,4,0,6,0.35
2013-4-1,74,61,52,60,56,51,99,84,52,30.08,29.92,5,1,8,0.00
2013-4-2,80,62,45,59,52,44,98,73,31,30.12,29.99,4,0,6,0.00
2013-4-3,64,57,52,60,56,50,98,94,85,30.05,29.73,7,2,11,2.26
2013-4-4,62,55,51,57,52,48,98,91,82,29.99,29.89,2,0,5,0.00
2013-4-5,67,55,48,52,48,44,95,79,51,30.13,29.99,8,2,17,0.00
2013-4-6,73,57,39,55,48,38,98,76,38,30.16,30.07,3,0,7,0.00
2013-4-7,75,61,44,60,54,43,98,81,55,30.11,30.01,2,0,7,0.00
2013-4-8,79,68,55,67,63,54,99,85,62,30.04,29.96,3,0,6,0.01
2013-4-9,80,73,69,72,69,68,95,87,73,30.05,29.93,5,1,9,0.00
2013-4-10,80,73,69,71,69,67,94,86,72,30.00,29.85,4,1,11,0.00
2013-4-11,79,68,53,73,66,52,97,92,80,29.85,29.62,5,1,9,1.53
2013-4-12,74,59,48,52,49,46,97,74,39,29.99,29.81,7,1,11,0.00
2013-4-13,77,58,45,57,51,44,96,81,48,30.04,29.89,2,0,5,0.00
2013-4-14,72,63,56,64,60,55,97,89,71,29.95,29.75,10,1,12,1.53
2013-4-15,77,69,62,72,67,61,99,93,83,30.01,29.81,2,0,3,0.03
2013-4-16,82,74,69,74,71,68,98,91,73,30.10,29.99,1,0,5,0.00
2013-4-17,84,73,67,73,70,66,99,89,68,30.10,29.98,3,0,7,0.00
2013-4-18,78,73,67,73,70,66,98,91,80,29.98,29.82,3,0,8,0.05
2013-4-19,74,53,42,72,51,42,100,93,73,30.19,29.78,4,1,6,1.50
2013-4-20,67,52,35,47,41,34,98,70,35,30.26,30.12,6,1,12,0.00
2013-4-21,74,58,43,56,46,40,95,69,34,30.21,30.10,3,0,7,0.00
2013-4-22,80,62,47,65,57,46,97,83,54,30.13,30.02,2,0,6,0.00
2013-4-23,77,68,58,67,63,57,99,87,68,30.10,30.01,3,0,4,0.01
2013-4-24,70,66,56,69,65,55,98,96,91,30.16,30.02,4,0,7,0.56
2013-4-25,72,60,53,60,54,49,97,82,51,30.29,30.16,6,2,11,0.00
2013-4-26,80,65,51,62,54,46,92,70,43,30.28,30.20,1,0,3,0.00
2013-4-27,81,71,62,69,66,60,98,84,63,30.20,30.03,2,0,5,0.00
2013-4-28,76,69,63,72,67,60,99,95,76,30.06,29.94,2,0,6,0.80
2013-4-29,82,68,60,68,63,59,99,85,57,29.98,29.88,3,0,4,0.00
2013-4-30,78,67,59,71,65,58,100,94,74,29.93,29.85,3,0,5,1.37
2013-5-1,77,67,63,72,66,63,99,97,80,29.91,29.83,11,1,24,1.69
2013-5-2,74,67,62,68,65,62,99,94,79,29.96,29.86,2,0,7,0.43
2013-5-3,75,62,47,68,60,45,98,94,78,30.00,29.85,4,1,7,0.21
2013-5-4,70,55,39,50,43,38,98,70,34,30.00,29.87,6,1,13,0.01
2013-5-5,65,57,46,53,48,43,96,73,48,30.02,29.84,5,1,15,0.00
2013-5-6,76,60,43,57,50,42,97,74,44,30.02,29.90,1,0,3,0.00
2013-5-7,81,65,49,62,57,48,98,78,46,30.04,29.96,2,0,5,0.00
2013-5-8,85,69,53,64,59,52,98,75,44,30.11,30.00,2,0,2,0.00
2013-5-9,82,69,56,68,62,55,98,80,54,30.13,30.04,2,0,5,0.00
2013-5-10,72,67,61,69,65,60,98,95,84,30.12,29.86,3,0,9,0.83
2013-5-11,75,66,58,70,64,58,99,94,82,30.06,29.93,1,0,1,0.32
2013-5-12,77,67,58,64,60,55,98,78,54,30.13,30.02,6,1,8,0.00
2013-5-13,77,64,50,56,49,42,92,63,32,30.29,30.13,5,1,9,0.00
2013-5-14,86,67,50,63,56,49,98,73,37,30.27,30.15,2,0,4,0.00
2013-5-15,84,68,54,66,58,53,99,75,40,30.21,30.03,1,0,3,0.00
2013-5-16,83,72,61,71,66,59,99,83,57,30.04,29.94,2,0,4,0.00
2013-5-17,83,76,71,73,71,69,97,86,70,30.03,29.95,2,0,7,0.00
2013-5-18,86,77,70,76,72,70,99,87,65,30.06,29.99,1,0,3,0.00
2013-5-19,81,75,67,75,72,66,99,91,78,30.02,29.96,1,0,3,0.00
2013-5-20,89,78,71,76,73,70,99,87,62,30.01,29.94,2,0,4,0.01
2013-5-21,87,77,66,74,71,65,99,84,60,29.97,29.85,2,0,5,0.01
2013-5-22,80,71,67,72,68,66,99,92,68,30.04,29.89,3,0,5,0.44
2013-5-23,91,76,63,75,70,63,99,83,56,30.04,29.94,1,0,3,0.00
2013-5-24,86,77,67,72,68,60,99,76,56,30.15,30.01,5,1,9,0.00
2013-5-25,87,73,61,66,58,52,95,63,36,30.24,30.13,2,0,4,0.00
2013-5-26,86,73,59,68,64,58,98,76,44,30.19,30.11,2,0,4,0.00
2013-5-27,86,76,66,73,67,62,97,76,47,30.14,30.05,2,0,10,0.00
2013-5-28,86,74,58,72,65,57,98,78,43,30.08,30.01,2,0,8,0.00
2013-5-29,86,76,68,75,72,67,99,87,68,30.03,29.97,3,0,10,0.08
2013-5-30,83,77,72,76,73,71,97,88,75,30.03,29.96,2,0,12,0.17
2013-5-31,86,78,73,77,74,72,97,89,73,30.02,29.95,2,0,5,0.13
2013-6-1,89,79,71,78,74,70,99,87,68,29.98,29.92,2,0,5,0.01
2013-6-2,92,76,67,76,71,66,99,87,54,30.01,29.86,8,0,11,0.15
2013-6-3,90,78,68,78,73,68,99,85,58,29.92,29.81,2,0,6,0.01
2013-6-4,92,80,72,78,74,71,99,84,57,29.93,29.86,2,0,4,0.00
2013-6-5,89,79,72,78,74,69,99,85,65,29.92,29.82,4,0,8,0.00
2013-6-6,91,74,64,76,69,64,98,86,54,29.85,29.73,3,0,7,0.04
2013-6-7,87,74,68,74,70,67,99,88,62,29.90,29.76,1,0,1,0.04
2013-6-8,88,77,67,76,72,66,99,85,63,30.01,29.87,1,0,5,0.04
2013-6-9,82,74,68,77,72,67,99,95,81,30.00,29.90,3,0,6,1.08
2013-6-10,87,77,69,80,74,68,99,93,72,30.03,29.95,3,0,6,0.48
2013-6-11,95,81,72,80,75,71,99,83,54,30.09,29.99,0,0,0,0.01
2013-6-12,94,81,70,79,75,70,99,82,54,30.08,29.99,0,0,0,0.00
2013-6-13,95,82,72,79,75,71,99,81,53,30.04,29.87,0,0,0,0.00
2013-6-14,90,81,73,80,74,68,96,79,53,29.94,29.85,5,1,9,0.00
2013-6-15,93,80,67,77,71,65,95,77,50,30.00,29.92,1,0,4,0.00
2013-6-16,95,80,70,80,75,69,99,86,56,30.03,29.95,1,0,3,0.52
2013-6-17,90,80,74,80,76,73,99,90,66,30.01,29.92,2,0,3,0.45
2013-6-18,92,81,72,78,74,70,97,81,61,30.00,29.87,6,0,15,0.00
2013-6-19,87,77,71,77,73,69,97,86,68,30.02,29.92,4,0,5,0.00
2013-6-20,93,77,69,77,72,68,99,85,57,30.09,30.00,6,0,9,0.01
2013-6-21,92,76,68,77,72,68,98,89,55,30.11,30.04,3,0,7,0.75
2013-6-22,91,76,68,79,72,68,99,89,61,30.09,29.99,1,0,3,0.07
2013-6-23,90,76,70,78,73,69,99,92,60,30.08,30.01,2,0,6,0.72
2013-6-24,90,78,70,80,74,70,100,88,57,30.14,30.05,1,0,2,0.12
2013-6-25,91,80,69,79,74,68,99,82,57,30.11,30.00,1,0,10,0.00
2013-6-26,94,81,70,80,75,69,99,82,56,30.06,29.95,1,0,3,0.00
2013-6-27,95,83,72,80,76,72,99,83,58,30.01,29.90,1,0,3,0.00
2013-6-28,95,83,75,82,77,74,99,83,61,29.92,29.75,1,0,2,0.00
2013-6-29,92,80,71,80,74,69,95,84,66,29.80,29.67,4,0,5,0.00
2013-6-30,91,78,69,76,70,63,98,77,41,29.78,29.70,3,0,3,0.00
2013-7-1,90,76,64,71,68,63,98,77,48,29.90,29.78,2,0,4,0.00
2013-7-2,90,75,66,75,69,64,97,83,51,29.99,29.88,2,0,5,0.02
2013-7-3,84,75,70,74,71,69,99,90,65,30.02,29.92,6,1,11,0.63
2013-7-4,88,77,71,78,73,70,99,88,66,29.98,29.90,4,1,6,0.14
2013-7-5,76,72,71,76,72,70,99,98,95,30.05,29.92,1,0,4,0.47
2013-7-6,80,74,71,76,73,70,99,95,82,30.03,29.96,1,0,3,0.85
2013-7-7,80,74,72,77,73,72,100,98,88,30.12,29.99,0,0,2,3.85
2013-7-8,89,76,71,78,74,71,100,95,66,30.16,30.06,0,0,0,1.13
2013-7-9,92,79,70,79,74,69,100,87,56,30.18,30.07,0,0,0,0.01
2013-7-10,90,78,72,80,75,72,99,91,70,30.10,29.96,2,0,5,0.10
2013-7-11,87,74,70,81,73,68,100,97,71,30.00,29.87,7,0,10,0.55
2013-7-12,93,77,68,81,72,67,100,88,61,29.93,29.83,4,0,4,0.00
2013-7-13,92,74,66,79,71,64,99,91,59,29.95,29.85,5,0,13,1.37
2013-7-14,89,77,68,77,72,68,100,87,63,30.02,29.91,2,0,3,0.00
2013-7-15,89,75,69,78,72,68,99,93,66,30.11,30.00,3,0,6,0.89
2013-7-16,83,75,71,78,74,71,100,96,82,30.18,30.07,3,0,4,0.73
2013-7-17,91,77,71,79,74,71,100,91,59,30.20,30.11,2,0,6,0.16
2013-7-18,91,75,70,80,72,68,100,92,65,30.15,29.99,13,1,22,0.37
2013-7-19,88,75,67,78,73,66,100,92,67,30.07,29.95,3,0,7,0.17
2013-7-20,91,78,70,79,74,70,100,90,65,30.00,29.90,1,0,1,0.00
2013-7-21,86,76,72,78,74,71,99,94,76,30.06,29.97,2,0,7,0.30
2013-7-22,85,75,72,80,74,71,100,96,81,30.07,29.98,1,0,4,0.90
2013-7-23,91,80,72,81,77,72,100,89,68,30.04,29.90,0,0,1,0.00
2013-7-24,91,81,70,80,77,69,99,88,62,29.96,29.86,4,0,7,0.43
2013-7-25,88,78,70,78,74,70,100,88,66,30.01,29.88,2,0,4,0.01
2013-7-26,92,80,70,77,72,69,99,80,51,30.05,29.95,0,0,1,0.00
2013-7-27,79,76,73,78,75,72,99,98,93,29.96,29.85,1,0,2,0.52
2013-7-28,85,78,73,78,75,73,100,92,77,30.00,29.86,5,1,6,0.00
2013-7-29,92,81,72,80,76,72,100,85,59,30.09,29.97,4,1,7,0.00
2013-7-30,93,80,74,82,77,73,99,89,61,30.13,30.05,2,0,5,0.01
2013-7-31,94,81,74,80,76,73,100,87,60,30.09,29.95,2,0,5,0.00
2013-8-1,94,79,72,81,76,72,99,89,62,30.01,29.90,8,0,11,0.25
2013-8-2,91,80,69,79,74,69,100,84,53,30.01,29.91,3,1,6,0.01
2013-8-3,94,82,71,80,75,71,99,82,53,30.06,29.97,3,0,4,0.00
2013-8-4,95,83,74,81,76,73,99,83,56,30.08,29.96,6,0,7,0.00
2013-8-5,96,80,72,82,76,72,99,87,62,30.03,29.93,5,1,9,0.00
2013-8-6,95,83,73,80,76,72,99,82,55,29.99,29.89,5,0,5,0.00
2013-8-7,95,81,72,82,76,72,99,86,57,29.97,29.89,2,0,5,0.00
2013-8-8,93,82,74,81,77,73,99,86,64,29.96,29.89,3,1,5,0.00
2013-8-9,91,81,75,81,77,75,99,90,68,30.02,29.92,3,1,7,0.09
2013-8-10,93,79,73,79,76,73,99,91,60,30.08,30.00,3,0,4,0.08
2013-8-11,88,78,72,80,76,72,99,94,73,30.12,30.05,2,0,5,0.73
2013-8-12,88,78,73,82,77,72,100,95,79,30.10,30.01,1,0,3,0.10
2013-8-13,93,78,72,82,75,72,100,94,63,30.03,29.94,3,0,5,1.07
2013-8-14,76,73,72,76,73,71,100,100,99,29.99,29.90,2,0,2,0.62
2013-8-15,84,76,72,76,73,72,100,91,67,29.99,29.90,4,1,6,0.01
2013-8-16,87,76,70,76,72,69,100,88,64,29.98,29.91,5,1,7,0.00
2013-8-17,80,74,71,74,72,70,98,92,78,29.99,29.92,4,2,8,0.02
2013-8-18,80,74,70,79,73,70,100,98,92,29.99,29.90,6,2,10,1.30
2013-8-19,87,77,70,79,74,70,100,93,72,30.04,29.95,1,0,2,0.25
2013-8-20,90,77,70,79,75,70,100,92,65,30.06,29.98,3,0,4,0.21
2013-8-21,89,77,72,79,74,72,100,93,65,30.13,30.03,2,0,4,0.12
2013-8-22,89,78,71,78,74,71,100,88,62,30.09,29.96,4,1,10,0.18
2013-8-23,87,77,71,77,74,71,100,90,69,30.02,29.93,4,1,6,0.01
2013-8-24,81,75,72,76,73,72,99,95,78,30.10,29.97,3,1,5,0.67
2013-8-25,84,76,72,77,73,71,99,91,76,30.18,30.08,4,1,6,0.00
2013-8-26,87,78,72,73,72,68,99,83,58,30.20,30.09,3,1,7,0.00
2013-8-27,86,74,64,70,67,64,98,80,53,30.12,30.03,4,1,6,0.00
2013-8-28,87,74,64,73,68,63,99,82,53,30.08,29.99,4,1,5,0.00
2013-8-29,92,78,66,75,70,65,99,80,50,30.07,29.97,2,0,3,0.00
2013-8-30,92,78,67,76,71,66,99,82,50,30.03,29.91,2,0,4,0.00
2013-8-31,92,80,69,79,74,69,99,84,60,29.97,29.85,3,0,4,0.00
2013-9-1,94,81,71,80,74,71,99,83,52,29.93,29.84,1,0,3,0.00
2013-9-2,94,82,72,80,76,71,99,83,57,29.97,29.86,1,0,4,0.00
2013-9-3,92,79,72,80,75,72,99,89,65,29.97,29.87,3,0,4,0.02
2013-9-4,91,77,70,80,74,70,99,93,64,30.05,29.94,2,0,4,0.13
2013-9-5,92,79,71,79,75,71,100,89,62,30.10,30.02,3,0,5,0.01
2013-9-6,91,79,70,79,74,70,100,88,59,30.09,29.99,4,0,5,0.00
2013-9-7,90,78,69,76,72,68,99,83,53,30.05,29.95,4,0,7,0.00
2013-9-8,92,78,68,77,72,68,99,85,56,30.00,29.92,3,0,4,0.00
2013-9-9,92,78,68,77,72,68,99,84,54,30.04,29.95,4,0,4,0.00
2013-9-10,92,79,69,77,73,68,99,84,54,30.10,30.01,4,0,5,0.00
2013-9-11,92,79,71,77,72,70,98,82,52,30.11,30.02,4,1,7,0.01
2013-9-12,91,78,68,77,72,68,99,84,53,30.04,29.91,4,1,7,0.00
2013-9-13,92,79,68,77,72,68,99,82,49,29.93,29.80,2,0,4,0.01
2013-9-14,87,77,70,73,70,66,97,80,57,29.98,29.85,5,1,7,0.00
2013-9-15,94,78,68,76,70,61,97,77,52,30.05,29.97,2,0,4,0.00
2013-9-16,92,79,69,76,72,68,100,81,53,30.07,29.98,5,0,6,0.00
2013-9-17,93,81,70,76,73,70,99,80,53,30.07,29.96,2,0,9,0.00
2013-9-18,87,77,72,77,73,71,96,88,70,30.06,29.99,3,0,5,0.00
2013-9-19,88,76,72,80,74,71,98,92,69,30.05,29.97,1,0,5,0.42
2013-9-20,88,78,72,80,75,72,99,91,70,29.99,29.81,1,0,6,0.03
2013-9-21,77,74,70,76,74,69,100,98,95,29.81,29.71,4,0,6,0.63
2013-9-22,77,71,67,69,67,63,99,88,71,29.81,29.73,5,2,11,0.37
2013-9-23,88,76,64,78,70,60,96,83,66,29.85,29.78,1,0,4,0.00
2013-9-24,85,77,73,78,75,73,99,95,78,29.86,29.75,2,0,4,0.58
2013-9-25,89,76,69,75,71,67,100,86,53,29.83,29.74,2,0,5,0.00
2013-9-26,86,74,62,71,67,61,99,81,54,29.93,29.80,3,0,6,0.00
2013-9-27,85,75,67,71,69,66,98,84,58,30.02,29.92,2,0,6,0.01
2013-9-28,86,72,63,69,65,62,98,80,47,30.07,29.98,3,0,6,0.00
2013-9-29,85,71,60,70,66,59,99,85,57,30.04,29.94,4,0,5,0.03
2013-9-30,83,73,67,73,70,66,98,89,67,29.97,29.91,2,0,5,0.03
2013-10-1,86,74,67,76,72,66,98,92,66,30.03,29.95,2,0,5,0.19
2013-10-2,82,75,71,77,73,71,99,92,80,30.05,29.96,1,0,3,0.02
2013-10-3,88,77,71,77,73,70,100,87,65,30.03,29.95,2,0,6,0.00
2013-10-4,89,78,71,77,74,71,100,88,64,30.03,29.96,2,0,5,0.00
2013-10-5,87,77,72,78,74,71,100,91,68,30.01,29.91,2,0,6,0.05
2013-10-6,84,73,66,79,71,60,100,93,79,29.91,29.77,5,1,7,0.95
2013-10-7,73,63,55,60,55,50,95,76,46,30.02,29.90,9,2,13,0.00
2013-10-8,75,61,51,61,56,51,98,84,53,30.03,29.96,4,0,5,0.01
2013-10-9,83,68,55,72,64,55,99,90,66,30.08,29.99,2,0,6,0.00
2013-10-10,82,70,64,71,67,63,99,90,67,30.11,29.99,3,0,4,0.01
2013-10-11,85,71,60,73,67,60,100,89,63,30.05,29.96,0,0,1,0.00
2013-10-12,86,72,62,74,67,61,99,85,55,30.08,29.98,0,0,2,0.00
2013-10-13,86,74,66,73,69,65,99,86,62,30.16,30.05,3,0,6,0.00
2013-10-14,85,71,64,69,65,63,99,83,49,30.11,30.00,3,0,5,0.01
2013-10-15,83,70,61,71,66,61,99,88,60,30.05,29.94,0,0,0,0.00
2013-10-16,85,72,62,72,68,61,99,87,59,30.01,29.90,0,0,0,0.01
2013-10-17,78,72,64,74,69,62,99,90,78,29.97,29.90,5,0,7,0.01
2013-10-18,72,65,60,62,60,58,97,86,65,30.03,29.92,4,0,7,0.02
2013-10-19,68,62,57,66,60,57,99,95,79,30.01,29.90,3,0,6,0.27
2013-10-20,72,61,52,61,56,51,98,87,62,30.06,29.97,4,0,6,0.01
2013-10-21,72,61,52,63,58,51,99,90,70,30.06,29.97,2,0,7,0.00
2013-10-22,78,66,58,64,60,56,96,82,53,29.99,29.89,2,0,5,0.00
2013-10-23,72,59,48,56,50,44,98,76,37,30.13,29.98,5,1,7,0.01
2013-10-24,78,58,42,60,50,41,98,79,39,30.23,30.11,1,0,2,0.00
2013-10-25,64,55,46,54,46,39,97,73,41,30.39,30.21,8,2,15,0.00
2013-10-26,71,53,40,53,43,38,95,73,36,30.31,30.16,1,0,4,0.00
2013-10-27,73,57,44,63,53,43,98,89,64,30.16,30.06,1,0,6,0.00
2013-10-28,81,65,51,68,60,50,100,87,62,30.19,30.08,1,0,3,0.01
2013-10-29,79,65,53,67,61,52,99,88,62,30.25,30.16,3,0,10,0.00
2013-10-30,79,69,59,70,66,59,99,90,74,30.20,30.05,2,0,5,0.01
2013-10-31,79,73,68,72,70,68,98,89,78,30.05,29.82,3,1,10,0.25
2013-11-1,78,66,52,68,62,52,99,87,56,29.92,29.78,2,0,5,0.10
2013-11-2,73,58,47,58,50,45,99,78,48,30.14,29.90,6,1,11,0.00
2013-11-3,66,52,41,48,44,39,97,79,46,30.23,30.13,4,0,10,0.00
2013-11-4,72,57,41,59,51,40,98,81,63,30.26,30.16,2,0,4,0.00
2013-11-5,74,65,60,62,58,54,92,80,65,30.24,30.13,1,0,10,0.00
2013-11-6,81,68,56,71,64,54,97,88,71,30.14,30.05,1,0,7,0.00
2013-11-7,69,57,47,68,53,40,98,85,60,30.28,30.04,9,2,14,0.50
2013-11-8,62,50,40,44,39,35,94,71,39,30.33,30.18,8,2,13,0.00
2013-11-9,74,56,40,59,50,38,98,82,56,30.24,30.15,3,0,4,0.00
2013-11-10,72,61,51,58,54,48,92,79,53,30.26,30.16,5,1,10,0.00
2013-11-11,78,59,45,56,50,44,96,78,43,30.24,30.12,1,0,4,0.00
2013-11-12,70,53,41,56,46,28,100,78,57,30.45,30.16,13,5,21,0.01
2013-11-13,52,41,32,34,27,22,90,59,36,30.52,30.41,10,4,17,0.00
2013-11-14,64,49,31,51,40,27,90,71,53,30.41,30.14,3,0,6,0.00
2013-11-15,69,60,53,67,58,48,99,94,80,30.14,30.00,5,1,10,0.63
2013-11-16,74,67,60,70,66,60,100,95,84,30.07,29.97,2,0,6,0.03
2013-11-17,78,72,68,74,71,67,100,96,85,29.99,29.89,2,0,6,0.26
2013-11-18,73,67,57,72,59,40,100,78,49,30.08,29.93,13,1,13,1.03
2013-11-19,62,52,41,44,40,34,90,64,36,30.14,30.03,9,2,12,0.00
2013-11-20,72,54,38,59,48,35,97,82,56,30.13,30.03,2,0,6,0.00
2013-11-21,70,61,54,65,60,53,99,94,83,30.22,30.12,2,0,5,0.00
2013-11-22,76,67,61,71,65,60,98,93,81,30.21,30.13,6,1,11,0.00
2013-11-23,64,58,46,63,55,41,97,91,79,30.31,30.15,11,5,20,0.00
2013-11-24,51,44,38,41,30,25,81,59,39,30.38,30.28,13,5,17,0.00
2013-11-25,54,48,37,53,42,25,98,81,57,30.30,29.85,3,1,9,0.52
2013-11-26,54,47,42,54,46,41,99,97,93,29.98,29.74,11,2,15,1.46
2013-11-27,47,39,29,41,31,26,100,76,46,30.41,29.99,8,2,15,0.01
2013-11-28,48,34,26,32,27,24,95,77,43,30.50,30.38,3,0,9,0.00
2013-11-29,58,39,26,35,29,25,100,73,30,30.54,30.41,3,0,6,0.00
2013-11-30,67,46,29,47,38,28,96,77,44,30.44,30.25,3,0,5,0.01
2013-12-1,70,51,36,55,46,35,98,85,55,30.27,30.00,1,0,3,0.00
2013-12-2,73,58,45,60,54,44,98,86,59,30.01,29.78,2,0,3,0.00
2013-12-3,70,65,60,68,64,60,100,98,91,29.83,29.74,2,0,4,0.16
2013-12-4,76,70,67,72,69,66,100,96,82,29.95,29.82,3,0,5,0.00
2013-12-5,73,71,69,73,71,69,100,100,99,30.02,29.93,2,1,3,0.13
2013-12-6,76,66,46,74,65,44,100,97,91,30.18,29.94,6,1,11,0.91
2013-12-7,45,40,39,45,40,38,98,97,94,30.31,30.17,9,4,12,0.08
2013-12-8,53,46,40,53,46,40,100,99,98,30.24,30.03,3,1,5,0.01
2013-12-9,61,55,51,58,54,51,100,97,89,30.14,30.04,5,2,9,0.10
2013-12-10,55,43,36,54,40,34,98,90,74,30.35,30.05,8,3,14,0.09
2013-12-11,58,45,33,48,38,31,94,78,53,30.40,30.31,4,1,7,0.00
2013-12-12,54,44,32,40,32,28,88,66,37,30.51,30.38,8,3,14,0.00
2013-12-13,60,47,30,53,41,26,90,79,64,30.37,29.98,2,0,5,0.00
2013-12-14,77,62,48,67,59,45,97,89,62,30.04,29.82,6,1,12,0.06
2013-12-15,48,42,30,45,37,29,95,82,68,30.31,30.04,8,2,12,0.00
2013-12-16,59,41,29,42,34,28,97,81,42,30.36,30.24,2,0,4,0.00
2013-12-17,65,44,31,47,37,30,97,78,38,30.34,30.22,2,0,2,0.01
2013-12-18,66,46,33,47,38,32,97,77,39,30.37,30.23,2,0,5,0.00
2013-12-19,71,55,34,59,50,32,97,86,65,30.23,30.05,3,0,3,0.00
2013-12-20,73,67,60,69,65,59,97,94,86,30.10,29.96,2,1,6,0.00
2013-12-21,75,72,70,72,70,69,98,96,92,29.95,29.80,4,2,13,0.01
2013-12-22,72,58,54,71,58,54,100,99,96,30.12,29.81,5,1,9,3.20
2013-12-23,54,44,34,54,42,32,100,92,82,30.44,30.10,8,3,13,0.16
2013-12-24,50,38,31,34,31,28,94,78,51,30.52,30.38,8,2,14,0.00
2013-12-25,46,37,28,35,30,25,93,75,51,30.41,30.30,3,0,7,0.00
2013-12-26,55,42,33,41,35,30,93,75,46,30.38,30.27,6,1,8,0.00
2013-12-27,58,49,40,40,37,35,85,64,48,30.40,30.27,8,3,10,0.00
2013-12-28,50,47,44,47,45,36,99,95,59,30.27,29.93,6,2,9,1.76
2013-12-29,60,50,41,50,46,40,99,88,57,30.12,29.95,4,0,5,0.01
2013-12-30,54,47,38,51,45,38,99,95,85,30.32,30.10,3,0,3,0.00
2013-12-31,48,43,41,47,41,39,97,91,85,30.42,30.29,6,2,10,0.10
2014-1-1,55,49,42,54,48,41,99,98,96,30.32,30.03,3,0,3,0.03
2014-1-2,58,50,34,57,45,26,100,83,62,30.35,29.93,9,2,18,0.63